createdAt,value
2023-05-12T00:03:32.625Z,48.74
2023-05-12T00:06:03.642Z,48.60
2023-05-12T00:08:31.538Z,48.42
2023-05-12T00:10:58.619Z,49.24
2023-05-12T00:13:25.693Z,48.90
2023-05-12T00:15:54.923Z,48.25
2023-05-12T00:18:22.142Z,46.70
2023-05-12T00:20:49.090Z,46.61
2023-05-12T00:23:15.955Z,46.52
2023-05-12T00:25:42.648Z,46.21
2023-05-12T00:28:10.031Z,45.76
2023-05-12T00:30:36.856Z,45.68
2023-05-12T00:33:04.591Z,45.61
2023-05-12T00:35:31.840Z,46.00
2023-05-12T00:37:58.648Z,46.96
2023-05-12T00:40:28.857Z,46.75
2023-05-12T00:42:55.662Z,46.49
2023-05-12T00:45:22.573Z,46.46
2023-05-12T00:47:51.952Z,46.52
2023-05-12T00:50:19.354Z,46.32
2023-05-12T00:52:48.055Z,46.64
2023-05-12T00:55:15.602Z,47.28
2023-05-12T00:57:43.915Z,47.34
2023-05-12T01:00:12.898Z,47.08
2023-05-12T01:02:42.278Z,47.84
2023-05-12T01:05:10.152Z,47.53
2023-05-12T01:07:39.471Z,48.79
2023-05-12T01:10:21.195Z,48.34
2023-05-12T01:12:48.654Z,48.02
2023-05-12T01:15:16.864Z,47.67
2023-05-12T01:17:54.391Z,47.80
2023-05-12T01:20:25.800Z,48.46
2023-05-12T01:22:54.833Z,48.07
2023-05-12T01:25:25.426Z,49.48
2023-05-12T01:27:54.071Z,50.74
2023-05-12T01:30:24.709Z,50.93
2023-05-12T01:32:52.488Z,50.47
2023-05-12T01:35:20.004Z,50.63
2023-05-12T01:37:57.249Z,51.19
2023-05-12T01:40:24.450Z,51.35
2023-05-12T01:42:51.716Z,51.72
2023-05-12T01:45:19.077Z,52.12
2023-05-12T01:47:46.980Z,52.99
2023-05-12T01:50:13.976Z,54.29
2023-05-12T01:52:41.140Z,54.79
2023-05-12T01:55:11.939Z,53.26
2023-05-12T01:57:59.085Z,52.35
2023-05-12T02:00:27.288Z,51.48
2023-05-12T02:02:56.833Z,51.37
2023-05-12T02:05:23.862Z,51.40
2023-05-12T02:07:50.864Z,51.05
2023-05-12T02:10:18.745Z,50.40
2023-05-12T02:12:45.966Z,49.43
2023-05-12T02:15:13.036Z,49.88
2023-05-12T02:17:44.374Z,49.45
2023-05-12T02:20:12.407Z,49.35
2023-05-12T02:22:39.568Z,48.76
2023-05-12T02:25:07.311Z,49.29
2023-05-12T02:27:34.880Z,49.90
2023-05-12T02:30:02.036Z,50.83
2023-05-12T02:32:29.788Z,51.64
2023-05-12T02:34:57.043Z,51.96
2023-05-12T02:37:24.063Z,51.53
2023-05-12T02:39:50.879Z,53.14
2023-05-12T02:42:18.772Z,53.46
2023-05-12T02:44:45.580Z,55.37
2023-05-12T02:47:12.736Z,53.94
2023-05-12T02:49:39.708Z,54.09
2023-05-12T02:52:06.750Z,52.94
2023-05-12T02:54:33.674Z,52.78
2023-05-12T02:57:05.090Z,52.06
2023-05-12T02:59:32.333Z,52.15
2023-05-12T03:01:59.372Z,51.48
2023-05-12T03:04:26.539Z,51.21
2023-05-12T03:06:54.384Z,51.28
2023-05-12T03:09:21.388Z,51.48
2023-05-12T03:11:48.662Z,51.84
2023-05-12T03:14:15.467Z,51.53
2023-05-12T03:16:42.834Z,51.64
2023-05-12T03:19:10.137Z,52.21
2023-05-12T03:21:37.408Z,51.97
2023-05-12T03:24:04.795Z,52.13
2023-05-12T03:26:31.905Z,52.22
2023-05-12T03:28:58.842Z,52.08
2023-05-12T03:31:26.163Z,52.11
2023-05-12T03:33:53.724Z,52.24
2023-05-12T03:36:21.068Z,53.50
2023-05-12T03:38:48.209Z,53.76
2023-05-12T03:41:15.096Z,53.17
2023-05-12T03:43:42.534Z,53.45
2023-05-12T03:46:09.466Z,53.30
2023-05-12T03:48:37.121Z,54.97
2023-05-12T03:51:04.381Z,53.90
2023-05-12T03:53:31.274Z,53.15
2023-05-12T03:55:58.325Z,52.70
2023-05-12T03:58:26.514Z,52.77
2023-05-12T04:00:58.722Z,52.78
2023-05-12T04:03:26.723Z,53.13
2023-05-12T04:06:04.915Z,53.11
2023-05-12T04:08:32.208Z,53.08
2023-05-12T04:11:02.542Z,53.11
2023-05-12T04:13:32.092Z,52.65
2023-05-12T04:16:00.254Z,52.34
2023-05-12T04:18:29.010Z,52.07
2023-05-12T04:20:56.662Z,52.07
2023-05-12T04:23:23.989Z,51.52
2023-05-12T04:25:51.356Z,51.39
2023-05-12T04:28:18.734Z,51.04
2023-05-12T04:30:50.929Z,51.17
2023-05-12T04:33:18.425Z,50.62
2023-05-12T04:35:45.733Z,49.87
2023-05-12T04:38:14.223Z,49.62
